sensor_id;sensor_type;location;lat;lon;timestamp;P1;durP1;ratioP1;P2;durP2;ratioP2
69008;SDS011;56065;52.472;13.380;2023-11-22T00:00:21;8.13;;;2.53;;
69008;SDS011;56065;52.472;13.380;2023-11-22T00:02:47;8.70;;;2.25;;
69008;SDS011;56065;52.472;13.380;2023-11-22T00:05:12;9.63;;;2.50;;
69008;SDS011;56065;52.472;13.380;2023-11-22T00:07:38;8.77;;;2.50;;
69008;SDS011;56065;52.472;13.380;2023-11-22T00:10:04;9.68;;;2.55;;
69008;SDS011;56065;52.472;13.380;2023-11-22T00:12:30;10.55;;;3.15;;
69008;SDS011;56065;52.472;13.380;2023-11-22T00:15:03;8.18;;;2.28;;
69008;SDS011;56065;52.472;13.380;2023-11-22T00:17:32;8.27;;;2.40;;
69008;SDS011;56065;52.472;13.380;2023-11-22T00:19:59;7.50;;;2.47;;
69008;SDS011;56065;52.472;13.380;2023-11-22T00:22:27;8.02;;;2.38;;
69008;SDS011;56065;52.472;13.380;2023-11-22T00:24:53;10.32;;;3.25;;
69008;SDS011;56065;52.472;13.380;2023-11-22T00:27:18;10.30;;;2.80;;
69008;SDS011;56065;52.472;13.380;2023-11-22T00:29:44;8.38;;;2.88;;
69008;SDS011;56065;52.472;13.380;2023-11-22T00:32:10;8.55;;;2.50;;
69008;SDS011;56065;52.472;13.380;2023-11-22T00:34:36;7.97;;;2.90;;
69008;SDS011;56065;52.472;13.380;2023-11-22T00:37:01;8.47;;;2.63;;
69008;SDS011;56065;52.472;13.380;2023-11-22T00:39:26;9.87;;;2.67;;
69008;SDS011;56065;52.472;13.380;2023-11-22T00:41:52;7.67;;;2.37;;
69008;SDS011;56065;52.472;13.380;2023-11-22T00:44:17;10.77;;;2.77;;
69008;SDS011;56065;52.472;13.380;2023-11-22T00:46:43;9.00;;;2.35;;
69008;SDS011;56065;52.472;13.380;2023-11-22T00:49:10;7.22;;;2.25;;
69008;SDS011;56065;52.472;13.380;2023-11-22T00:51:36;9.95;;;2.70;;
69008;SDS011;56065;52.472;13.380;2023-11-22T00:54:01;9.00;;;3.10;;
69008;SDS011;56065;52.472;13.380;2023-11-22T00:56:26;8.87;;;2.10;;
69008;SDS011;56065;52.472;13.380;2023-11-22T00:58:52;8.57;;;2.50;;
69008;SDS011;56065;52.472;13.380;2023-11-22T01:01:19;7.15;;;2.25;;
69008;SDS011;56065;52.472;13.380;2023-11-22T01:03:45;7.63;;;2.40;;
69008;SDS011;56065;52.472;13.380;2023-11-22T01:06:11;7.57;;;2.30;;
69008;SDS011;56065;52.472;13.380;2023-11-22T01:08:37;8.02;;;2.40;;
69008;SDS011;56065;52.472;13.380;2023-11-22T01:11:03;7.72;;;2.70;;
69008;SDS011;56065;52.472;13.380;2023-11-22T01:13:28;8.03;;;2.73;;
69008;SDS011;56065;52.472;13.380;2023-11-22T01:15:54;9.68;;;2.75;;
69008;SDS011;56065;52.472;13.380;2023-11-22T01:18:19;8.30;;;3.00;;
69008;SDS011;56065;52.472;13.380;2023-11-22T01:20:45;9.47;;;2.57;;
69008;SDS011;56065;52.472;13.380;2023-11-22T01:23:10;8.70;;;2.50;;
69008;SDS011;56065;52.472;13.380;2023-11-22T01:25:36;9.80;;;2.78;;
69008;SDS011;56065;52.472;13.380;2023-11-22T01:28:01;10.20;;;3.38;;
69008;SDS011;56065;52.472;13.380;2023-11-22T01:30:26;12.17;;;3.83;;
69008;SDS011;56065;52.472;13.380;2023-11-22T01:32:53;10.02;;;3.45;;
69008;SDS011;56065;52.472;13.380;2023-11-22T01:35:20;9.95;;;3.53;;
69008;SDS011;56065;52.472;13.380;2023-11-22T01:37:45;9.15;;;3.08;;
69008;SDS011;56065;52.472;13.380;2023-11-22T01:40:10;11.20;;;3.10;;
69008;SDS011;56065;52.472;13.380;2023-11-22T01:42:37;11.43;;;3.63;;
69008;SDS011;56065;52.472;13.380;2023-11-22T01:45:05;11.40;;;2.80;;
69008;SDS011;56065;52.472;13.380;2023-11-22T01:47:31;9.45;;;3.10;;
69008;SDS011;56065;52.472;13.380;2023-11-22T01:49:57;10.93;;;3.53;;
69008;SDS011;56065;52.472;13.380;2023-11-22T01:52:22;11.10;;;2.85;;
69008;SDS011;56065;52.472;13.380;2023-11-22T01:54:48;11.07;;;3.30;;
69008;SDS011;56065;52.472;13.380;2023-11-22T01:57:14;10.57;;;3.30;;
69008;SDS011;56065;52.472;13.380;2023-11-22T01:59:39;10.27;;;3.03;;
69008;SDS011;56065;52.472;13.380;2023-11-22T02:02:06;10.82;;;2.72;;
69008;SDS011;56065;52.472;13.380;2023-11-22T02:04:32;10.23;;;2.87;;
69008;SDS011;56065;52.472;13.380;2023-11-22T02:06:57;10.17;;;3.10;;
69008;SDS011;56065;52.472;13.380;2023-11-22T02:09:22;9.50;;;2.83;;
69008;SDS011;56065;52.472;13.380;2023-11-22T02:11:47;10.57;;;2.83;;
69008;SDS011;56065;52.472;13.380;2023-11-22T02:14:14;8.27;;;2.70;;
69008;SDS011;56065;52.472;13.380;2023-11-22T02:16:40;8.00;;;2.50;;
69008;SDS011;56065;52.472;13.380;2023-11-22T02:19:06;7.68;;;1.90;;
69008;SDS011;56065;52.472;13.380;2023-11-22T02:21:36;8.25;;;2.60;;
69008;SDS011;56065;52.472;13.380;2023-11-22T02:24:02;7.87;;;2.17;;
69008;SDS011;56065;52.472;13.380;2023-11-22T02:26:27;8.38;;;2.08;;
69008;SDS011;56065;52.472;13.380;2023-11-22T02:28:52;10.10;;;2.20;;
69008;SDS011;56065;52.472;13.380;2023-11-22T02:31:18;9.57;;;2.30;;
69008;SDS011;56065;52.472;13.380;2023-11-22T02:33:43;7.37;;;2.40;;
69008;SDS011;56065;52.472;13.380;2023-11-22T02:36:09;8.70;;;1.80;;
69008;SDS011;56065;52.472;13.380;2023-11-22T02:38:37;9.15;;;2.53;;
69008;SDS011;56065;52.472;13.380;2023-11-22T02:41:03;9.85;;;2.20;;
69008;SDS011;56065;52.472;13.380;2023-11-22T02:43:29;6.80;;;1.93;;
69008;SDS011;56065;52.472;13.380;2023-11-22T02:45:55;8.98;;;2.20;;
69008;SDS011;56065;52.472;13.380;2023-11-22T02:48:20;6.73;;;2.40;;
69008;SDS011;56065;52.472;13.380;2023-11-22T02:50:45;8.63;;;2.30;;
69008;SDS011;56065;52.472;13.380;2023-11-22T02:53:11;9.13;;;2.50;;
69008;SDS011;56065;52.472;13.380;2023-11-22T02:55:37;8.30;;;2.33;;
69008;SDS011;56065;52.472;13.380;2023-11-22T02:58:02;8.27;;;2.80;;
69008;SDS011;56065;52.472;13.380;2023-11-22T03:00:28;7.30;;;2.50;;
69008;SDS011;56065;52.472;13.380;2023-11-22T03:02:54;9.45;;;2.25;;
69008;SDS011;56065;52.472;13.380;2023-11-22T03:05:20;8.93;;;2.20;;
69008;SDS011;56065;52.472;13.380;2023-11-22T03:07:46;7.75;;;1.95;;
69008;SDS011;56065;52.472;13.380;2023-11-22T03:10:12;8.10;;;2.00;;
69008;SDS011;56065;52.472;13.380;2023-11-22T03:12:38;7.05;;;2.15;;
69008;SDS011;56065;52.472;13.380;2023-11-22T03:15:03;8.75;;;2.17;;
69008;SDS011;56065;52.472;13.380;2023-11-22T03:17:30;8.53;;;2.17;;
69008;SDS011;56065;52.472;13.380;2023-11-22T03:19:57;7.60;;;2.00;;
69008;SDS011;56065;52.472;13.380;2023-11-22T03:22:23;6.07;;;1.83;;
69008;SDS011;56065;52.472;13.380;2023-11-22T03:24:49;6.97;;;1.95;;
69008;SDS011;56065;52.472;13.380;2023-11-22T03:27:15;9.05;;;2.20;;
69008;SDS011;56065;52.472;13.380;2023-11-22T03:29:41;8.60;;;2.13;;
69008;SDS011;56065;52.472;13.380;2023-11-22T03:32:06;8.37;;;1.80;;
69008;SDS011;56065;52.472;13.380;2023-11-22T03:34:32;7.55;;;2.38;;
69008;SDS011;56065;52.472;13.380;2023-11-22T03:36:57;7.03;;;1.90;;
69008;SDS011;56065;52.472;13.380;2023-11-22T03:39:22;8.43;;;2.43;;
69008;SDS011;56065;52.472;13.380;2023-11-22T03:41:48;10.57;;;3.03;;
69008;SDS011;56065;52.472;13.380;2023-11-22T03:44:13;8.63;;;2.83;;
69008;SDS011;56065;52.472;13.380;2023-11-22T03:46:38;9.23;;;3.10;;
69008;SDS011;56065;52.472;13.380;2023-11-22T03:49:05;9.85;;;2.63;;
69008;SDS011;56065;52.472;13.380;2023-11-22T03:51:33;10.70;;;2.50;;
69008;SDS011;56065;52.472;13.380;2023-11-22T03:54:00;9.85;;;3.08;;
69008;SDS011;56065;52.472;13.380;2023-11-22T03:56:27;7.72;;;2.60;;
69008;SDS011;56065;52.472;13.380;2023-11-22T03:58:53;7.67;;;3.00;;
69008;SDS011;56065;52.472;13.380;2023-11-22T04:01:18;9.48;;;3.13;;
69008;SDS011;56065;52.472;13.380;2023-11-22T04:03:45;9.27;;;3.50;;
69008;SDS011;56065;52.472;13.380;2023-11-22T04:06:11;10.98;;;2.90;;
69008;SDS011;56065;52.472;13.380;2023-11-22T04:08:36;9.30;;;2.97;;
69008;SDS011;56065;52.472;13.380;2023-11-22T04:11:03;8.68;;;3.00;;
69008;SDS011;56065;52.472;13.380;2023-11-22T04:13:30;8.82;;;2.50;;
69008;SDS011;56065;52.472;13.380;2023-11-22T04:15:56;8.50;;;2.90;;
69008;SDS011;56065;52.472;13.380;2023-11-22T04:18:21;8.97;;;2.77;;
69008;SDS011;56065;52.472;13.380;2023-11-22T04:20:46;10.63;;;2.90;;
69008;SDS011;56065;52.472;13.380;2023-11-22T04:23:13;8.75;;;2.72;;
69008;SDS011;56065;52.472;13.380;2023-11-22T04:25:39;10.57;;;3.03;;
69008;SDS011;56065;52.472;13.380;2023-11-22T04:28:06;9.88;;;2.78;;
69008;SDS011;56065;52.472;13.380;2023-11-22T04:30:33;9.30;;;2.78;;
69008;SDS011;56065;52.472;13.380;2023-11-22T04:32:59;11.05;;;3.90;;
69008;SDS011;56065;52.472;13.380;2023-11-22T04:35:25;11.87;;;3.00;;
69008;SDS011;56065;52.472;13.380;2023-11-22T04:37:50;8.43;;;2.63;;
69008;SDS011;56065;52.472;13.380;2023-11-22T04:40:15;8.48;;;2.78;;
69008;SDS011;56065;52.472;13.380;2023-11-22T04:42:41;10.13;;;3.00;;
69008;SDS011;56065;52.472;13.380;2023-11-22T04:45:06;12.47;;;3.20;;
69008;SDS011;56065;52.472;13.380;2023-11-22T04:47:32;11.07;;;2.97;;
69008;SDS011;56065;52.472;13.380;2023-11-22T04:49:58;11.18;;;3.58;;
69008;SDS011;56065;52.472;13.380;2023-11-22T04:52:23;9.87;;;2.83;;
69008;SDS011;56065;52.472;13.380;2023-11-22T04:54:49;12.53;;;3.33;;
69008;SDS011;56065;52.472;13.380;2023-11-22T04:57:14;9.07;;;3.33;;
69008;SDS011;56065;52.472;13.380;2023-11-22T04:59:40;10.77;;;3.30;;
69008;SDS011;56065;52.472;13.380;2023-11-22T05:02:05;9.65;;;2.75;;
69008;SDS011;56065;52.472;13.380;2023-11-22T05:04:32;10.60;;;3.00;;
69008;SDS011;56065;52.472;13.380;2023-11-22T05:06:57;10.05;;;2.70;;
69008;SDS011;56065;52.472;13.380;2023-11-22T05:09:23;10.30;;;3.30;;
69008;SDS011;56065;52.472;13.380;2023-11-22T05:11:49;10.55;;;3.17;;
69008;SDS011;56065;52.472;13.380;2023-11-22T05:14:14;9.20;;;2.87;;
69008;SDS011;56065;52.472;13.380;2023-11-22T05:16:39;15.23;;;3.17;;
69008;SDS011;56065;52.472;13.380;2023-11-22T05:19:05;9.23;;;2.73;;
69008;SDS011;56065;52.472;13.380;2023-11-22T05:21:30;8.50;;;3.10;;
69008;SDS011;56065;52.472;13.380;2023-11-22T05:23:57;11.32;;;3.50;;
69008;SDS011;56065;52.472;13.380;2023-11-22T05:26:22;11.75;;;3.10;;
69008;SDS011;56065;52.472;13.380;2023-11-22T05:28:48;9.47;;;2.83;;
69008;SDS011;56065;52.472;13.380;2023-11-22T05:31:13;9.57;;;3.33;;
69008;SDS011;56065;52.472;13.380;2023-11-22T05:33:39;10.00;;;3.20;;
69008;SDS011;56065;52.472;13.380;2023-11-22T05:36:05;10.13;;;2.78;;
69008;SDS011;56065;52.472;13.380;2023-11-22T05:38:31;8.65;;;2.85;;
69008;SDS011;56065;52.472;13.380;2023-11-22T05:40:58;9.68;;;2.88;;
69008;SDS011;56065;52.472;13.380;2023-11-22T05:43:25;11.93;;;3.33;;
69008;SDS011;56065;52.472;13.380;2023-11-22T05:45:51;9.88;;;2.78;;
69008;SDS011;56065;52.472;13.380;2023-11-22T05:48:20;13.73;;;3.65;;
69008;SDS011;56065;52.472;13.380;2023-11-22T05:50:47;8.30;;;2.70;;
69008;SDS011;56065;52.472;13.380;2023-11-22T05:53:12;7.95;;;2.17;;
69008;SDS011;56065;52.472;13.380;2023-11-22T05:55:44;9.67;;;2.77;;
69008;SDS011;56065;52.472;13.380;2023-11-22T05:58:15;8.40;;;2.60;;
69008;SDS011;56065;52.472;13.380;2023-11-22T06:00:42;8.73;;;2.72;;
69008;SDS011;56065;52.472;13.380;2023-11-22T06:03:11;8.88;;;2.47;;
69008;SDS011;56065;52.472;13.380;2023-11-22T06:05:37;9.85;;;2.75;;
69008;SDS011;56065;52.472;13.380;2023-11-22T06:08:02;10.93;;;3.00;;
69008;SDS011;56065;52.472;13.380;2023-11-22T06:10:28;11.03;;;3.00;;
69008;SDS011;56065;52.472;13.380;2023-11-22T06:12:53;11.27;;;3.60;;
69008;SDS011;56065;52.472;13.380;2023-11-22T06:15:19;7.67;;;2.73;;
69008;SDS011;56065;52.472;13.380;2023-11-22T06:17:46;8.60;;;3.08;;
69008;SDS011;56065;52.472;13.380;2023-11-22T06:20:12;10.80;;;3.57;;
69008;SDS011;56065;52.472;13.380;2023-11-22T06:22:38;9.27;;;3.00;;
69008;SDS011;56065;52.472;13.380;2023-11-22T06:25:06;12.18;;;3.15;;
69008;SDS011;56065;52.472;13.380;2023-11-22T06:27:33;8.88;;;2.88;;
69008;SDS011;56065;52.472;13.380;2023-11-22T06:29:58;10.50;;;3.20;;
69008;SDS011;56065;52.472;13.380;2023-11-22T06:32:24;10.80;;;3.37;;
69008;SDS011;56065;52.472;13.380;2023-11-22T06:34:49;9.07;;;3.10;;
69008;SDS011;56065;52.472;13.380;2023-11-22T06:37:14;11.27;;;3.10;;
69008;SDS011;56065;52.472;13.380;2023-11-22T06:39:40;10.73;;;3.43;;
69008;SDS011;56065;52.472;13.380;2023-11-22T06:42:05;9.35;;;2.85;;
69008;SDS011;56065;52.472;13.380;2023-11-22T06:44:31;9.37;;;2.83;;
69008;SDS011;56065;52.472;13.380;2023-11-22T06:46:57;9.32;;;2.60;;
69008;SDS011;56065;52.472;13.380;2023-11-22T06:49:22;12.37;;;3.20;;
69008;SDS011;56065;52.472;13.380;2023-11-22T06:51:48;10.57;;;3.20;;
69008;SDS011;56065;52.472;13.380;2023-11-22T06:54:13;10.93;;;3.67;;
69008;SDS011;56065;52.472;13.380;2023-11-22T06:56:38;10.40;;;3.45;;
69008;SDS011;56065;52.472;13.380;2023-11-22T06:59:04;9.63;;;2.93;;
69008;SDS011;56065;52.472;13.380;2023-11-22T07:01:29;10.40;;;3.70;;
69008;SDS011;56065;52.472;13.380;2023-11-22T07:03:54;10.90;;;2.93;;
69008;SDS011;56065;52.472;13.380;2023-11-22T07:06:20;10.10;;;3.20;;
69008;SDS011;56065;52.472;13.380;2023-11-22T07:08:47;9.55;;;3.10;;
69008;SDS011;56065;52.472;13.380;2023-11-22T07:11:13;9.85;;;3.22;;
69008;SDS011;56065;52.472;13.380;2023-11-22T07:13:38;12.10;;;3.60;;
69008;SDS011;56065;52.472;13.380;2023-11-22T07:16:05;9.77;;;3.33;;
69008;SDS011;56065;52.472;13.380;2023-11-22T07:18:32;11.48;;;3.60;;
69008;SDS011;56065;52.472;13.380;2023-11-22T07:20:58;11.18;;;3.42;;
69008;SDS011;56065;52.472;13.380;2023-11-22T07:23:24;8.90;;;2.88;;
69008;SDS011;56065;52.472;13.380;2023-11-22T07:25:54;11.27;;;3.60;;
69008;SDS011;56065;52.472;13.380;2023-11-22T07:28:19;9.43;;;2.93;;
69008;SDS011;56065;52.472;13.380;2023-11-22T07:30:45;9.15;;;3.30;;
69008;SDS011;56065;52.472;13.380;2023-11-22T07:33:10;11.07;;;3.47;;
69008;SDS011;56065;52.472;13.380;2023-11-22T07:35:36;9.73;;;3.10;;
69008;SDS011;56065;52.472;13.380;2023-11-22T07:38:01;8.77;;;2.77;;
69008;SDS011;56065;52.472;13.380;2023-11-22T07:40:28;11.45;;;3.35;;
69008;SDS011;56065;52.472;13.380;2023-11-22T07:42:54;12.20;;;3.13;;
69008;SDS011;56065;52.472;13.380;2023-11-22T07:45:19;10.20;;;3.25;;
69008;SDS011;56065;52.472;13.380;2023-11-22T07:47:44;9.83;;;3.67;;
69008;SDS011;56065;52.472;13.380;2023-11-22T07:50:11;9.93;;;3.22;;
69008;SDS011;56065;52.472;13.380;2023-11-22T07:52:37;10.30;;;3.33;;
69008;SDS011;56065;52.472;13.380;2023-11-22T07:55:05;8.20;;;3.00;;
69008;SDS011;56065;52.472;13.380;2023-11-22T07:57:34;14.23;;;4.82;;
69008;SDS011;56065;52.472;13.380;2023-11-22T08:00:00;10.40;;;3.38;;
69008;SDS011;56065;52.472;13.380;2023-11-22T08:02:29;9.52;;;3.50;;
69008;SDS011;56065;52.472;13.380;2023-11-22T08:04:55;9.98;;;3.60;;
69008;SDS011;56065;52.472;13.380;2023-11-22T08:07:21;11.03;;;3.87;;
69008;SDS011;56065;52.472;13.380;2023-11-22T08:09:48;10.40;;;3.40;;
69008;SDS011;56065;52.472;13.380;2023-11-22T08:12:13;8.30;;;3.13;;
69008;SDS011;56065;52.472;13.380;2023-11-22T08:14:39;11.10;;;3.70;;
69008;SDS011;56065;52.472;13.380;2023-11-22T08:17:05;11.13;;;3.33;;
69008;SDS011;56065;52.472;13.380;2023-11-22T08:19:31;11.73;;;4.50;;
69008;SDS011;56065;52.472;13.380;2023-11-22T08:21:56;9.43;;;3.30;;
69008;SDS011;56065;52.472;13.380;2023-11-22T08:24:22;9.32;;;3.45;;
69008;SDS011;56065;52.472;13.380;2023-11-22T08:26:48;8.13;;;2.92;;
69008;SDS011;56065;52.472;13.380;2023-11-22T08:29:13;10.00;;;3.40;;
69008;SDS011;56065;52.472;13.380;2023-11-22T08:31:39;10.13;;;2.97;;
69008;SDS011;56065;52.472;13.380;2023-11-22T08:34:05;8.48;;;3.22;;
69008;SDS011;56065;52.472;13.380;2023-11-22T08:36:32;9.93;;;2.80;;
69008;SDS011;56065;52.472;13.380;2023-11-22T08:38:59;10.23;;;3.10;;
69008;SDS011;56065;52.472;13.380;2023-11-22T08:41:28;7.90;;;2.63;;
69008;SDS011;56065;52.472;13.380;2023-11-22T08:43:55;9.40;;;3.15;;
69008;SDS011;56065;52.472;13.380;2023-11-22T08:46:23;10.57;;;3.15;;
69008;SDS011;56065;52.472;13.380;2023-11-22T08:48:51;11.80;;;3.30;;
69008;SDS011;56065;52.472;13.380;2023-11-22T08:51:17;8.27;;;3.28;;
69008;SDS011;56065;52.472;13.380;2023-11-22T08:53:43;12.30;;;3.27;;
69008;SDS011;56065;52.472;13.380;2023-11-22T08:56:09;9.13;;;3.38;;
69008;SDS011;56065;52.472;13.380;2023-11-22T08:58:36;8.07;;;3.15;;
69008;SDS011;56065;52.472;13.380;2023-11-22T09:01:02;9.07;;;3.13;;
69008;SDS011;56065;52.472;13.380;2023-11-22T09:03:28;9.15;;;2.65;;
69008;SDS011;56065;52.472;13.380;2023-11-22T09:05:54;9.73;;;3.00;;
69008;SDS011;56065;52.472;13.380;2023-11-22T09:08:20;9.23;;;3.53;;
69008;SDS011;56065;52.472;13.380;2023-11-22T09:10:46;10.13;;;3.08;;
69008;SDS011;56065;52.472;13.380;2023-11-22T09:13:11;8.93;;;3.40;;
69008;SDS011;56065;52.472;13.380;2023-11-22T09:15:40;12.55;;;3.28;;
69008;SDS011;56065;52.472;13.380;2023-11-22T09:18:06;8.60;;;2.97;;
69008;SDS011;56065;52.472;13.380;2023-11-22T09:20:33;9.63;;;3.20;;
69008;SDS011;56065;52.472;13.380;2023-11-22T09:22:58;10.27;;;3.63;;
69008;SDS011;56065;52.472;13.380;2023-11-22T09:25:24;8.67;;;3.03;;
69008;SDS011;56065;52.472;13.380;2023-11-22T09:27:52;10.50;;;3.47;;
69008;SDS011;56065;52.472;13.380;2023-11-22T09:30:21;9.73;;;3.38;;
69008;SDS011;56065;52.472;13.380;2023-11-22T09:35:32;9.68;;;3.17;;
69008;SDS011;56065;52.472;13.380;2023-11-22T09:37:59;9.87;;;3.30;;
69008;SDS011;56065;52.472;13.380;2023-11-22T09:40:25;8.55;;;3.17;;
69008;SDS011;56065;52.472;13.380;2023-11-22T09:42:57;7.78;;;2.90;;
69008;SDS011;56065;52.472;13.380;2023-11-22T09:45:23;7.93;;;2.88;;
69008;SDS011;56065;52.472;13.380;2023-11-22T09:47:50;10.20;;;3.20;;
69008;SDS011;56065;52.472;13.380;2023-11-22T09:50:19;11.13;;;3.60;;
69008;SDS011;56065;52.472;13.380;2023-11-22T09:52:50;9.85;;;3.38;;
69008;SDS011;56065;52.472;13.380;2023-11-22T09:55:19;8.60;;;2.95;;
69008;SDS011;56065;52.472;13.380;2023-11-22T09:57:47;8.83;;;2.97;;
69008;SDS011;56065;52.472;13.380;2023-11-22T10:00:12;12.15;;;4.30;;
69008;SDS011;56065;52.472;13.380;2023-11-22T10:02:43;9.20;;;3.17;;
69008;SDS011;56065;52.472;13.380;2023-11-22T10:05:09;13.68;;;3.60;;
69008;SDS011;56065;52.472;13.380;2023-11-22T10:07:34;10.73;;;3.53;;
69008;SDS011;56065;52.472;13.380;2023-11-22T10:10:03;9.18;;;3.28;;
69008;SDS011;56065;52.472;13.380;2023-11-22T10:12:30;7.55;;;2.90;;
69008;SDS011;56065;52.472;13.380;2023-11-22T10:15:17;11.98;;;3.70;;
69008;SDS011;56065;52.472;13.380;2023-11-22T10:18:01;8.27;;;3.33;;
69008;SDS011;56065;52.472;13.380;2023-11-22T10:20:35;9.48;;;3.67;;
69008;SDS011;56065;52.472;13.380;2023-11-22T10:23:11;9.38;;;3.80;;
69008;SDS011;56065;52.472;13.380;2023-11-22T10:25:45;12.07;;;3.00;;
69008;SDS011;56065;52.472;13.380;2023-11-22T10:28:12;8.98;;;3.10;;
69008;SDS011;56065;52.472;13.380;2023-11-22T10:30:38;8.00;;;3.20;;
69008;SDS011;56065;52.472;13.380;2023-11-22T10:33:05;8.23;;;2.90;;
69008;SDS011;56065;52.472;13.380;2023-11-22T10:35:31;8.70;;;3.53;;
69008;SDS011;56065;52.472;13.380;2023-11-22T10:37:58;8.83;;;3.30;;
69008;SDS011;56065;52.472;13.380;2023-11-22T10:40:24;8.88;;;3.03;;
69008;SDS011;56065;52.472;13.380;2023-11-22T10:42:49;9.77;;;3.33;;
69008;SDS011;56065;52.472;13.380;2023-11-22T10:45:18;8.48;;;3.00;;
69008;SDS011;56065;52.472;13.380;2023-11-22T10:47:45;9.93;;;3.72;;
69008;SDS011;56065;52.472;13.380;2023-11-22T10:50:11;8.97;;;3.10;;
69008;SDS011;56065;52.472;13.380;2023-11-22T10:52:37;8.90;;;3.47;;
69008;SDS011;56065;52.472;13.380;2023-11-22T10:55:07;10.50;;;3.80;;
69008;SDS011;56065;52.472;13.380;2023-11-22T10:57:38;10.82;;;3.00;;
69008;SDS011;56065;52.472;13.380;2023-11-22T11:00:09;9.82;;;3.60;;
69008;SDS011;56065;52.472;13.380;2023-11-22T11:02:41;8.83;;;3.47;;
69008;SDS011;56065;52.472;13.380;2023-11-22T11:05:31;10.80;;;3.70;;
69008;SDS011;56065;52.472;13.380;2023-11-22T11:10:43;10.73;;;3.78;;
69008;SDS011;56065;52.472;13.380;2023-11-22T11:13:14;8.95;;;3.45;;
69008;SDS011;56065;52.472;13.380;2023-11-22T11:15:40;10.07;;;3.40;;
69008;SDS011;56065;52.472;13.380;2023-11-22T11:18:08;9.85;;;4.13;;
69008;SDS011;56065;52.472;13.380;2023-11-22T11:20:49;9.95;;;3.70;;
69008;SDS011;56065;52.472;13.380;2023-11-22T11:23:20;8.00;;;3.37;;
69008;SDS011;56065;52.472;13.380;2023-11-22T11:25:54;8.68;;;3.40;;
69008;SDS011;56065;52.472;13.380;2023-11-22T11:28:19;8.68;;;2.80;;
69008;SDS011;56065;52.472;13.380;2023-11-22T11:33:13;8.50;;;3.40;;
69008;SDS011;56065;52.472;13.380;2023-11-22T11:36:01;9.50;;;4.00;;
69008;SDS011;56065;52.472;13.380;2023-11-22T11:38:32;8.77;;;3.05;;
69008;SDS011;56065;52.472;13.380;2023-11-22T11:41:09;10.73;;;3.55;;
69008;SDS011;56065;52.472;13.380;2023-11-22T11:43:42;8.15;;;3.53;;
69008;SDS011;56065;52.472;13.380;2023-11-22T11:46:12;8.45;;;3.92;;
69008;SDS011;56065;52.472;13.380;2023-11-22T11:48:42;8.93;;;3.70;;
69008;SDS011;56065;52.472;13.380;2023-11-22T11:51:09;9.60;;;3.92;;
69008;SDS011;56065;52.472;13.380;2023-11-22T11:53:34;8.17;;;3.40;;
69008;SDS011;56065;52.472;13.380;2023-11-22T11:56:01;8.57;;;3.40;;
69008;SDS011;56065;52.472;13.380;2023-11-22T11:58:27;8.93;;;3.72;;
69008;SDS011;56065;52.472;13.380;2023-11-22T12:00:54;7.57;;;3.20;;
69008;SDS011;56065;52.472;13.380;2023-11-22T12:03:20;10.07;;;3.78;;
69008;SDS011;56065;52.472;13.380;2023-11-22T12:05:46;8.93;;;3.53;;
69008;SDS011;56065;52.472;13.380;2023-11-22T12:08:14;8.10;;;3.22;;
69008;SDS011;56065;52.472;13.380;2023-11-22T12:10:41;10.80;;;3.47;;
69008;SDS011;56065;52.472;13.380;2023-11-22T12:13:06;9.02;;;3.50;;
69008;SDS011;56065;52.472;13.380;2023-11-22T12:15:33;8.77;;;3.45;;
69008;SDS011;56065;52.472;13.380;2023-11-22T12:17:59;11.57;;;3.70;;
69008;SDS011;56065;52.472;13.380;2023-11-22T12:20:25;9.38;;;3.13;;
69008;SDS011;56065;52.472;13.380;2023-11-22T12:22:56;8.73;;;3.38;;
69008;SDS011;56065;52.472;13.380;2023-11-22T12:25:27;7.88;;;3.47;;
69008;SDS011;56065;52.472;13.380;2023-11-22T12:27:56;11.07;;;2.93;;
69008;SDS011;56065;52.472;13.380;2023-11-22T12:30:35;9.77;;;3.40;;
69008;SDS011;56065;52.472;13.380;2023-11-22T12:33:01;10.15;;;3.40;;
69008;SDS011;56065;52.472;13.380;2023-11-22T12:35:30;9.35;;;3.13;;
69008;SDS011;56065;52.472;13.380;2023-11-22T12:37:58;8.73;;;3.03;;
69008;SDS011;56065;52.472;13.380;2023-11-22T12:40:26;9.13;;;3.17;;
69008;SDS011;56065;52.472;13.380;2023-11-22T12:42:52;9.48;;;3.33;;
69008;SDS011;56065;52.472;13.380;2023-11-22T12:45:22;9.88;;;3.63;;
69008;SDS011;56065;52.472;13.380;2023-11-22T12:47:49;9.82;;;2.58;;
69008;SDS011;56065;52.472;13.380;2023-11-22T12:50:34;8.80;;;3.07;;
69008;SDS011;56065;52.472;13.380;2023-11-22T12:53:13;10.38;;;3.00;;
69008;SDS011;56065;52.472;13.380;2023-11-22T12:55:43;6.55;;;2.20;;
69008;SDS011;56065;52.472;13.380;2023-11-22T12:58:10;7.63;;;1.98;;
69008;SDS011;56065;52.472;13.380;2023-11-22T13:00:37;7.80;;;2.50;;
69008;SDS011;56065;52.472;13.380;2023-11-22T13:03:04;6.77;;;2.40;;
69008;SDS011;56065;52.472;13.380;2023-11-22T13:05:30;6.90;;;2.30;;
69008;SDS011;56065;52.472;13.380;2023-11-22T13:07:56;9.37;;;2.67;;
69008;SDS011;56065;52.472;13.380;2023-11-22T13:10:21;7.90;;;2.40;;
69008;SDS011;56065;52.472;13.380;2023-11-22T13:12:51;7.37;;;2.50;;
69008;SDS011;56065;52.472;13.380;2023-11-22T13:15:17;9.55;;;2.42;;
69008;SDS011;56065;52.472;13.380;2023-11-22T13:17:45;7.65;;;2.80;;
69008;SDS011;56065;52.472;13.380;2023-11-22T13:20:11;7.27;;;2.30;;
69008;SDS011;56065;52.472;13.380;2023-11-22T13:22:40;7.50;;;2.60;;
69008;SDS011;56065;52.472;13.380;2023-11-22T13:25:09;9.63;;;2.47;;
69008;SDS011;56065;52.472;13.380;2023-11-22T13:27:38;8.25;;;2.65;;
69008;SDS011;56065;52.472;13.380;2023-11-22T13:30:04;8.40;;;2.80;;
69008;SDS011;56065;52.472;13.380;2023-11-22T13:32:30;7.00;;;2.40;;
69008;SDS011;56065;52.472;13.380;2023-11-22T13:34:56;8.40;;;2.83;;
69008;SDS011;56065;52.472;13.380;2023-11-22T13:37:22;8.70;;;2.95;;
69008;SDS011;56065;52.472;13.380;2023-11-22T13:39:48;11.43;;;2.90;;
69008;SDS011;56065;52.472;13.380;2023-11-22T13:42:14;9.50;;;2.90;;
69008;SDS011;56065;52.472;13.380;2023-11-22T13:44:39;7.90;;;2.50;;
69008;SDS011;56065;52.472;13.380;2023-11-22T13:47:06;7.72;;;2.88;;
69008;SDS011;56065;52.472;13.380;2023-11-22T13:49:33;9.07;;;2.72;;
69008;SDS011;56065;52.472;13.380;2023-11-22T13:52:02;9.57;;;3.47;;
69008;SDS011;56065;52.472;13.380;2023-11-22T13:54:28;7.83;;;2.50;;
69008;SDS011;56065;52.472;13.380;2023-11-22T13:56:53;8.77;;;2.80;;
69008;SDS011;56065;52.472;13.380;2023-11-22T13:59:18;11.30;;;2.80;;
69008;SDS011;56065;52.472;13.380;2023-11-22T14:01:44;7.90;;;2.57;;
69008;SDS011;56065;52.472;13.380;2023-11-22T14:04:10;13.18;;;2.85;;
69008;SDS011;56065;52.472;13.380;2023-11-22T14:06:36;8.07;;;2.63;;
69008;SDS011;56065;52.472;13.380;2023-11-22T14:09:01;6.70;;;2.33;;
69008;SDS011;56065;52.472;13.380;2023-11-22T14:11:26;8.38;;;3.08;;
69008;SDS011;56065;52.472;13.380;2023-11-22T14:13:52;8.00;;;2.40;;
69008;SDS011;56065;52.472;13.380;2023-11-22T14:16:17;7.70;;;2.47;;
69008;SDS011;56065;52.472;13.380;2023-11-22T14:18:43;9.18;;;3.15;;
69008;SDS011;56065;52.472;13.380;2023-11-22T14:21:08;9.10;;;2.30;;
69008;SDS011;56065;52.472;13.380;2023-11-22T14:23:35;7.70;;;2.40;;
69008;SDS011;56065;52.472;13.380;2023-11-22T14:26:00;7.60;;;2.40;;
69008;SDS011;56065;52.472;13.380;2023-11-22T14:28:26;6.93;;;2.60;;
69008;SDS011;56065;52.472;13.380;2023-11-22T14:30:52;9.93;;;2.20;;
69008;SDS011;56065;52.472;13.380;2023-11-22T14:33:19;6.03;;;1.77;;
69008;SDS011;56065;52.472;13.380;2023-11-22T14:35:45;8.68;;;2.53;;